の過去48時間の天気

Polyarny

現在時刻: 2/21 03:58 +09 (2/20 18:58 UTC) 以下の時間は現地時間です。

過去48時間のMETAR気象情報
時間 風向 風速(m/s) 視程 気温(℃) 湿度(%) 気圧(hPa) 天気現象
21 03:00 3 10km以上 -18 92 1003
21 02:00 3 10km以上 -17 84 1003
21 01:00 3 10km以上 -17 84 1004
21 00:00 3 10km以上 -17 84 1004
20 23:00 3 10km以上 -17 84 1005
20 22:00 3 10km以上 -17 84 1005
20 21:00 3 10km以上 -17 84 1005
20 20:30 3 10km以上 -17 84 1005
20 20:00 3 10km以上 -17 84 1005
20 19:30 3 10km以上 -17 84 1005
20 19:00 3 10km以上 -16 85 1005
20 18:30 2 10km以上 -16 85 1005
20 18:00 3 10km以上 -15 85 1005
20 17:30 3 10km以上 -15 85 1005
20 17:00 4 10km以上 -14 85 1005
20 16:30 3 10km以上 -14 92 1005
20 14:30 3 10km以上 -13 85 1006
20 14:00 3 10km以上 -14 85 1006
20 13:30 3 10km以上 -14 85 1006
20 13:00 3 10km以上 -15 92 1006
20 12:30 南南東 3 10km以上 -16 92 1006
20 12:00 南南東 3 10km以上 -16 92 1007
20 11:30 南南東 3 10km以上 -16 85 1007
20 11:00 南南東 2 10km以上 -16 85 1007
20 10:30 2 10km以上 -17 84 1007
20 10:00 2 10km以上 -17 92 1007
20 09:30 2 10km以上 -17 92 1007
20 09:00 南南東 2 10km以上 -16 92 1007
20 08:30 南南東 2 10km以上 -16 92 1007
20 08:00 南南東 3 10km以上 -15 85 1007
20 07:30 南南東 2 10km以上 -15 85 1007
20 07:00 2 10km以上 -16 92 1007
20 06:30 2 10km以上 -16 92 1007
20 06:00 2 10km以上 -16 85 1008
20 05:00 2 10km以上 -17 84 1008
20 04:00 2 10km以上 -17 84 1008
20 03:00 2 10km以上 -17 84 1008
20 02:00 2 10km以上 -17 84 1009
20 01:00 3 10km以上 -17 92 1009
20 00:30 3 10km以上 -17 84 1009
20 00:00 3 10km以上 -17 92 1009
19 23:30 3 10km以上 -17 92 1009
19 23:00 3 10km以上 -15 85 1009
19 22:30 3 10km以上 -15 85 1009
19 22:00 3 10km以上 -15 85 1009
19 21:30 3 10km以上 -15 85 1009 弱い雪
19 21:00 3 10km以上 -15 85 1010 弱い雪
19 20:30 3 10km以上 -15 85 1010 弱い雪
19 20:00 3 10km以上 -14 85 1010
19 19:30 2 10km以上 -14 85 1010
19 19:00 3 10km以上 -14 78 1010 弱い雪
19 18:30 3 10km以上 -14 78 1011 弱い雪
19 18:00 3 10km以上 -14 78 1011 弱い雪
19 17:30 3 10km以上 -14 85 1011
19 17:00 3 10km以上 -14 85 1011
19 16:30 3 10km以上 -14 85 1011
19 16:00 3 10km以上 -15 85 1011
19 15:30 3 10km以上 -15 85 1012
19 15:00 3 8000m -15 85 1011 弱い雪
19 14:30 3 8000m -15 85 1012 弱い雪
19 14:00 3 10km以上 -15 85 1012
19 13:30 3 10km以上 -15 85 1012
19 13:00 3 10km以上 -15 85 1012
19 12:30 3 10km以上 -15 85 1012
19 12:00 3 10km以上 -15 85 1012
19 11:30 3 10km以上 -16 92 1013
19 11:00 南南東 3 10km以上 -16 85 1013
19 10:30 南南東 3 10km以上 -17 92 1013
19 10:00 南南東 2 10km以上 -17 92 1013
19 09:30 南南東 2 10km以上 -17 92 1014
19 09:00 3 10km以上 -16 85 1014
19 08:30 南南東 3 10km以上 -16 85 1014
19 08:00 南南東 3 10km以上 -16 92 1014
19 07:30 南南東 2 10km以上 -17 84 1015
19 07:00 南南東 2 10km以上 -17 84 1015
19 06:30 南南東 2 10km以上 -17 84 1015
19 06:00 南南東 3 10km以上 -17 84 1015
19 05:00 2 10km以上 -17 84 1016
19 04:00 2 10km以上 -18 84 1016
UERP 201800Z 19003MPS CAVOK M18/M19 Q1003 R35/890138 NOSIG RMK QFE708
UERP 201700Z 17003MPS CAVOK M17/M19 Q1003 R35/890138 NOSIG RMK QFE708
UERP 201600Z 17003MPS CAVOK M17/M19 Q1004 R35/890138 NOSIG RMK QFE709
UERP 201500Z 19003MPS CAVOK M17/M19 Q1004 R35/890138 NOSIG RMK QFE709
UERP 201400Z 17003MPS CAVOK M17/M19 Q1005 R35/890138 NOSIG RMK QFE709
UERP 201300Z 17003MPS CAVOK M17/M19 Q1005 R35/890138 NOSIG RMK QFE709
UERP 201200Z 18003MPS CAVOK M17/M19 Q1005 R35/890138 NOSIG RMK QFE710
UERP 201130Z 17003MPS CAVOK M17/M19 Q1005 R35/890138 NOSIG RMK QFE710
UERP 201100Z 17003MPS CAVOK M17/M19 Q1005 R35/890138 NOSIG RMK QFE710
UERP 201030Z 18003MPS CAVOK M17/M19 Q1005 R35/890138 NOSIG RMK QFE710
UERP 201000Z 18003MPS CAVOK M16/M18 Q1005 R35/890138 NOSIG RMK QFE710
UERP 200930Z 18002MPS CAVOK M16/M18 Q1005 R35/890138 NOSIG RMK QFE710
UERP 200900Z 18003MPS CAVOK M15/M17 Q1005 R35/890138 NOSIG RMK QFE710
UERP 200830Z 19003MPS CAVOK M15/M17 Q1005 R35/890138 NOSIG RMK QFE710
UERP 200800Z 19004MPS CAVOK M14/M16 Q1005 R35/890138 NOSIG RMK QFE710
UERP 200730Z 19003MPS CAVOK M14/M15 Q1005 R35/890138 NOSIG RMK QFE710
UERP 200530Z 19003MPS CAVOK M13/M15 Q1006 R35/890138 NOSIG RMK QFE710
UERP 200500Z 19003MPS CAVOK M14/M16 Q1006 R35/890138 NOSIG RMK QFE711
UERP 200430Z 19003MPS CAVOK M14/M16 Q1006 R35/490538 NOSIG RMK QFE711
UERP 200400Z 18003MPS CAVOK M15/M16 Q1006 R35/490538 NOSIG RMK QFE711
UERP 200330Z 16003MPS CAVOK M16/M17 Q1006 R35/490538 NOSIG RMK QFE711
UERP 200300Z 15003MPS CAVOK M16/M17 Q1007 R35/490538 NOSIG RMK QFE711
UERP 200230Z 16003MPS CAVOK M16/M18 Q1007 R35/490538 NOSIG RMK QFE711
UERP 200200Z 16002MPS CAVOK M16/M18 Q1007 R35/490538 NOSIG RMK QFE711
UERP 200130Z 17002MPS CAVOK M17/M19 Q1007 R35/490538 NOSIG RMK QFE711
UERP 200100Z 17002MPS CAVOK M17/M18 Q1007 R35/490538 NOSIG RMK QFE711
UERP 200030Z 18002MPS CAVOK M17/M18 Q1007 R35/490538 NOSIG RMK QFE711
UERP 200000Z 16002MPS CAVOK M16/M17 Q1007 R35/490538 NOSIG RMK QFE711
UERP 192330Z 16002MPS CAVOK M16/M17 Q1007 R35/490538 NOSIG RMK QFE711
UERP 192300Z 16003MPS CAVOK M15/M17 Q1007 R35/490538 NOSIG RMK QFE711
UERP 192230Z 16002MPS CAVOK M15/M17 Q1007 R35/490540 NOSIG RMK QFE711
UERP 192200Z 17002MPS CAVOK M16/M17 Q1007 R35/490540 NOSIG RMK QFE712
UERP 192130Z 17002MPS CAVOK M16/M17 Q1007 R35/490540 NOSIG RMK QFE711
UERP 192100Z 18002MPS CAVOK M16/M18 Q1008 R35/490540 NOSIG RMK QFE712
UERP 192000Z 18002MPS CAVOK M17/M19 Q1008 R35/490540 NOSIG RMK QFE712
UERP 191900Z 19002MPS CAVOK M17/M19 Q1008 R35/490540 NOSIG RMK QFE712
UERP 191800Z 18002MPS CAVOK M17/M19 Q1008 R35/490540 NOSIG RMK QFE712
UERP 191700Z 17002MPS CAVOK M17/M19 Q1009 R35/490540 NOSIG RMK QFE712
UERP 191600Z 17003MPS CAVOK M17/M18 Q1009 R35/490540 NOSIG RMK QFE712
UERP 191530Z 17003MPS CAVOK M17/M19 Q1009 R35/490540 NOSIG RMK QFE712
UERP 191500Z 18003MPS CAVOK M17/M18 Q1009 R35/490540 NOSIG RMK QFE713
UERP 191430Z 19003MPS CAVOK M17/M18 Q1009 R35/490540 NOSIG RMK QFE713
UERP 191400Z 18003MPS CAVOK M15/M17 Q1009 R35/490540 NOSIG RMK QFE713
UERP 191330Z 17003MPS CAVOK M15/M17 Q1009 R35/490533 NOSIG RMK QFE713
UERP 191300Z 18003MPS CAVOK M15/M17 Q1009 R35/490533 NOSIG RMK QFE713
UERP 191230Z 18003MPS 9999 -SN BKN100 M15/M17 Q1009 R35/490533 NOSIG RMK QFE713
UERP 191200Z 19003MPS 9999 -SN BKN100 M15/M17 Q1010 R35/490533 NOSIG RMK QFE713
UERP 191130Z 18003MPS 9999 -SN BKN100 M15/M17 Q1010 R35/490533 NOSIG RMK QFE713
UERP 191100Z 18003MPS CAVOK M14/M16 Q1010 R35/490533 NOSIG RMK QFE713
UERP 191030Z 19002MPS CAVOK M14/M16 Q1010 R35/490533 NOSIG RMK QFE713
UERP 191000Z 18003MPS 9999 -SN OVC100 M14/M17 Q1010 R35/490533 NOSIG RMK QFE713
UERP 190930Z 18003MPS 9999 -SN OVC100 M14/M17 Q1011 R35/490533 NOSIG RMK QFE714
UERP 190900Z 18003MPS 9999 -SN OVC100 M14/M17 Q1011 R35/490533 NOSIG RMK QFE714
UERP 190830Z 19003MPS CAVOK M14/M16 Q1011 R35/490533 NOSIG RMK QFE714
UERP 190800Z 19003MPS CAVOK M14/M16 Q1011 R35/490533 NOSIG RMK QFE714
UERP 190730Z 19003MPS CAVOK M14/M16 Q1011 R35/490533 NOSIG RMK QFE714
UERP 190700Z 19003MPS CAVOK M15/M17 Q1011 R35/490533 NOSIG RMK QFE714
UERP 190630Z 19003MPS CAVOK M15/M17 Q1012 R35/490533 NOSIG RMK QFE715
UERP 190600Z 19003MPS 8000 -SN OVC100 M15/M17 Q1011 R35/490533 NOSIG RMK QFE714
UERP 190530Z 18003MPS 8000 -SN OVC100 M15/M17 Q1012 R35/490533 NOSIG RMK QFE715
UERP 190500Z 18003MPS CAVOK M15/M17 Q1012 R35/490533 NOSIG RMK QFE715
UERP 190430Z 18003MPS CAVOK M15/M17 Q1012 R35/490533 NOSIG RMK QFE715
UERP 190400Z 18003MPS CAVOK M15/M17 Q1012 R35/490533 NOSIG RMK QFE715
UERP 190330Z 18003MPS CAVOK M15/M17 Q1012 R35/490533 NOSIG RMK QFE715
UERP 190300Z 18003MPS CAVOK M15/M17 Q1012 R35/490533 NOSIG RMK QFE715
UERP 190230Z 17003MPS CAVOK M16/M17 Q1013 R35/490533 NOSIG RMK QFE715
UERP 190200Z 16003MPS CAVOK M16/M18 Q1013 R35/490533 NOSIG RMK QFE715
UERP 190130Z 16003MPS CAVOK M17/M18 Q1013 R35/490533 NOSIG RMK QFE716
UERP 190100Z 16002MPS CAVOK M17/M18 Q1013 R35/490533 NOSIG RMK QFE716
UERP 190030Z 16002MPS CAVOK M17/M18 Q1014 R35/490533 NOSIG RMK QFE716
UERP 190000Z 17003MPS CAVOK M16/M18 Q1014 R35/490533 NOSIG RMK QFE717
UERP 182330Z 16003MPS CAVOK M16/M18 Q1014 R35/490533 NOSIG RMK QFE717
UERP 182300Z 16003MPS CAVOK M16/M17 Q1014 R35/490533 NOSIG RMK QFE717
UERP 182230Z 15002MPS CAVOK M17/M19 Q1015 R17/850235 NOSIG RMK QFE717
UERP 182200Z 15002MPS CAVOK M17/M19 Q1015 R17/850235 NOSIG RMK QFE717
UERP 182130Z 15002MPS CAVOK M17/M19 Q1015 R17/850235 NOSIG RMK QFE717
UERP 182100Z 16003MPS CAVOK M17/M19 Q1015 R17/850235 NOSIG RMK QFE717
UERP 182000Z 17002MPS CAVOK M17/M19 Q1016 R17/850235 NOSIG RMK QFE718
UERP 181900Z 18002MPS CAVOK M18/M20 Q1016 R17/850235 NOSIG RMK QFE718